Thunder radar more information blitzortung!


Radar de pluja more information rain snow radar


Visita la nostra xarxa de llocs de meteo:

Template documentation
and downloads

And another site



No particular awareness of the weather is required.    There are no Weather-warnings

Pagina Historial Weather Underground text

Diari Resum Marc 09, 2018 Unitats:  Tant    Imperial   Mètric
« Previous Dia
SegĂźent Dia »
Diari Setmana Mensual Anual Personalitzada
  Maxima: Minima: Media:
Temperatura: TemperatureC °F /  -17.8 °C 4.7 °F /  -15.2 °C 12.2 °F /  -11 °C
Punt de rosada: DewpointC °F /  -17.8 °C 1.7 °F /  -16.8 °C 6.4 °F /  -14.2 °C
Humitat: Humidity % 47 % 69 %
Wind Speed: WindSpeedKMH mph /  0 km/h - 4.4 mph /  7.1 km/h
RĂ fegues de vent: WindSpeedGustKMH mph /  0 km/h - -
Vent:- - SSW
Pression baro: PressurehPa in /  0 hPa 1010.7 in /  34222.3 hPa -
Precipitacions: 0.0 in /  0 mm    
Historical Graphs
 
 
Dades de taula per Marc 09, 2018
Temps Temperatura Punt de rosada Pression baro Vent Wind Speed RĂ fegues de vent Humitat Rainfall Rate (Hourly)
TemperatureC °F /  -17.8 °C DewpointC °F /  -17.8 °C PressurehPa in /  0 hPa Calm     Humidity % HourlyPrecipMM in /  0 mm
00:02 8.8 °F /  -12.9 °C 5.2 °F /  -14.9 °C 1012.8 in /  34293.4 hPa WSW 3.7 mph /  6 km/h 3.7 mph /  6 km/h 78 % 0.0 in /  0 mm
00:07 8.9 °F /  -12.8 °C 5.3 °F /  -14.8 °C 1012.8 in /  34293.4 hPa WSW 3.7 mph /  6 km/h 3.7 mph /  6 km/h 78 % 0.0 in /  0 mm
00:12 8.8 °F /  -12.9 °C 5.2 °F /  -14.9 °C 1012.8 in /  34293.4 hPa West 3.7 mph /  6 km/h 3.7 mph /  6 km/h 78 % 0.0 in /  0 mm
00:17 8.7 °F /  -12.9 °C 5.1 °F /  -14.9 °C 1012.8 in /  34293.4 hPa West 4.7 mph /  7.6 km/h 4.7 mph /  7.6 km/h 78 % 0.0 in /  0 mm
00:22 8.8 °F /  -12.9 °C 5.2 °F /  -14.9 °C 1012.8 in /  34293.4 hPa SSW 3.7 mph /  6 km/h 3.7 mph /  6 km/h 78 % 0.0 in /  0 mm
00:27 8.7 °F /  -12.9 °C 5.3 °F /  -14.8 °C 1012.8 in /  34293.4 hPa West 3.7 mph /  6 km/h 3.7 mph /  6 km/h 79 % 0.0 in /  0 mm
00:32 8.7 °F /  -12.9 °C 5.3 °F /  -14.8 °C 1012.8 in /  34293.4 hPa WSW 3.7 mph /  6 km/h 3.7 mph /  6 km/h 79 % 0.0 in /  0 mm
00:37 8.6 °F /  -13 °C 5.0 °F /  -15 °C 1012.8 in /  34293.4 hPa West 3.7 mph /  6 km/h 3.7 mph /  6 km/h 78 % 0.0 in /  0 mm
00:42 8.6 °F /  -13 °C 5.2 °F /  -14.9 °C 1012.8 in /  34293.4 hPa WSW 3.7 mph /  6 km/h 3.7 mph /  6 km/h 79 % 0.0 in /  0 mm
00:47 8.6 °F /  -13 °C 5.2 °F /  -14.9 °C 1012.8 in /  34293.4 hPa WSW 3.7 mph /  6 km/h 3.7 mph /  6 km/h 79 % 0.0 in /  0 mm
00:52 8.5 °F /  -13.1 °C 5.1 °F /  -14.9 °C 1012.8 in /  34293.4 hPa WSW 3.7 mph /  6 km/h 3.7 mph /  6 km/h 79 % 0.0 in /  0 mm
00:57 8.4 °F /  -13.1 °C 4.9 °F /  -15.1 °C 1012.8 in /  34293.4 hPa WSW 3.7 mph /  6 km/h 3.7 mph /  6 km/h 79 % 0.0 in /  0 mm
01:02 8.5 °F /  -13.1 °C 5.1 °F /  -14.9 °C 1012.8 in /  34293.4 hPa WSW 3.7 mph /  6 km/h 3.7 mph /  6 km/h 79 % 0.0 in /  0 mm
01:07 8.5 °F /  -13.1 °C 5.1 °F /  -14.9 °C 1012.8 in /  34293.4 hPa West 3.7 mph /  6 km/h 3.7 mph /  6 km/h 79 % 0.0 in /  0 mm
01:12 8.4 °F /  -13.1 °C 4.9 °F /  -15.1 °C 1012.8 in /  34293.4 hPa WSW 3.7 mph /  6 km/h 3.7 mph /  6 km/h 79 % 0.0 in /  0 mm
01:17 8.4 °F /  -13.1 °C 4.9 °F /  -15.1 °C 1012.8 in /  34293.4 hPa WSW 1.9 mph /  3.1 km/h 1.9 mph /  3.1 km/h 79 % 0.0 in /  0 mm
01:22 8.3 °F /  -13.2 °C 5.1 °F /  -14.9 °C 1013.8 in /  34327.3 hPa WSW 3.7 mph /  6 km/h   80 % 0.0 in /  0 mm
01:27 8.2 °F /  -13.2 °C 4.9 °F /  -15.1 °C 1013.8 in /  34327.3 hPa Calm     80 % 0.0 in /  0 mm
01:32 8.1 °F /  -13.3 °C 4.8 °F /  -15.1 °C 1013.8 in /  34327.3 hPa Calm     80 % 0.0 in /  0 mm
01:37 8.0 °F /  -13.3 °C 4.8 °F /  -15.1 °C 1013.8 in /  34327.3 hPa Calm     80 % 0.0 in /  0 mm
01:42 8.0 °F /  -13.3 °C 4.9 °F /  -15.1 °C 1013.8 in /  34327.3 hPa WNW 1.9 mph /  3.1 km/h   81 % 0.0 in /  0 mm
01:47 7.9 °F /  -13.4 °C 4.7 °F /  -15.2 °C 1013.8 in /  34327.3 hPa WNW 1.9 mph /  3.1 km/h 1.9 mph /  3.1 km/h 80 % 0.0 in /  0 mm
01:52 7.8 °F /  -13.4 °C 4.6 °F /  -15.2 °C 1013.8 in /  34327.3 hPa WSW 2.6 mph /  4.2 km/h 2.6 mph /  4.2 km/h 80 % 0.0 in /  0 mm
01:57 7.7 °F /  -13.5 °C 4.4 °F /  -15.3 °C 1013.8 in /  34327.3 hPa West 1.9 mph /  3.1 km/h 1.9 mph /  3.1 km/h 80 % 0.0 in /  0 mm
02:02 7.7 °F /  -13.5 °C 4.3 °F /  -15.4 °C 1013.8 in /  34327.3 hPa WNW 1.9 mph /  3.1 km/h   79 % 0.0 in /  0 mm
02:07 7.6 °F /  -13.6 °C 4.2 °F /  -15.4 °C 1013.8 in /  34327.3 hPa West 1.9 mph /  3.1 km/h 1.9 mph /  3.1 km/h 79 % 0.0 in /  0 mm
02:12 7.6 °F /  -13.6 °C 4.2 °F /  -15.4 °C 1013.8 in /  34327.3 hPa WSW 1.9 mph /  3.1 km/h 1.9 mph /  3.1 km/h 79 % 0.0 in /  0 mm
02:17 7.5 °F /  -13.6 °C 4.1 °F /  -15.5 °C 1013.8 in /  34327.3 hPa WSW 3.7 mph /  6 km/h 3.7 mph /  6 km/h 79 % 0.0 in /  0 mm
02:22 7.3 °F /  -13.7 °C 3.9 °F /  -15.6 °C 1012.8 in /  34293.4 hPa NE 2.3 mph /  3.7 km/h 2.3 mph /  3.7 km/h 79 % 0.0 in /  0 mm
02:27 7.1 °F /  -13.8 °C 3.9 °F /  -15.6 °C 1012.8 in /  34293.4 hPa NE 1.9 mph /  3.1 km/h   80 % 0.0 in /  0 mm
02:32 7.0 °F /  -13.9 °C 3.8 °F /  -15.7 °C 1012.8 in /  34293.4 hPa Calm     80 % 0.0 in /  0 mm
02:37 6.9 °F /  -13.9 °C 3.7 °F /  -15.7 °C 1013.8 in /  34327.3 hPa Calm     80 % 0.0 in /  0 mm
02:42 6.8 °F /  -14 °C 3.4 °F /  -15.9 °C 1013.8 in /  34327.3 hPa Calm     79 % 0.0 in /  0 mm
02:47 6.6 °F /  -14.1 °C 3.4 °F /  -15.9 °C 1013.8 in /  34327.3 hPa Calm     80 % 0.0 in /  0 mm
02:52 6.6 °F /  -14.1 °C 3.4 °F /  -15.9 °C 1013.8 in /  34327.3 hPa Calm     80 % 0.0 in /  0 mm
02:57 6.5 °F /  -14.2 °C 3.3 °F /  -15.9 °C 1013.8 in /  34327.3 hPa WSW 3.7 mph /  6 km/h 3.7 mph /  6 km/h 80 % 0.0 in /  0 mm
03:02 6.5 °F /  -14.2 °C 3.3 °F /  -15.9 °C 1013.8 in /  34327.3 hPa Calm     80 % 0.0 in /  0 mm
03:07 6.4 °F /  -14.2 °C 3.2 °F /  -16 °C 1012.8 in /  34293.4 hPa WSW 1.9 mph /  3.1 km/h   80 % 0.0 in /  0 mm
03:12 6.4 °F /  -14.2 °C 3.0 °F /  -16.1 °C 1012.8 in /  34293.4 hPa NW 1.9 mph /  3.1 km/h   79 % 0.0 in /  0 mm
03:17 6.4 °F /  -14.2 °C 3.2 °F /  -16 °C 1012.8 in /  34293.4 hPa NNE 3.7 mph /  6 km/h 3.7 mph /  6 km/h 80 % 0.0 in /  0 mm
03:22 6.4 °F /  -14.2 °C 3.2 °F /  -16 °C 1012.8 in /  34293.4 hPa ENE 1.9 mph /  3.1 km/h 1.9 mph /  3.1 km/h 80 % 0.0 in /  0 mm
03:27 6.4 °F /  -14.2 °C 3.4 °F /  -15.9 °C 1012.8 in /  34293.4 hPa NNE 4.2 mph /  6.8 km/h 4.2 mph /  6.8 km/h 81 % 0.0 in /  0 mm
03:32 6.3 °F /  -14.3 °C 3.3 °F /  -15.9 °C 1012.8 in /  34293.4 hPa NE 3.7 mph /  6 km/h 3.7 mph /  6 km/h 81 % 0.0 in /  0 mm
03:37 5.8 °F /  -14.6 °C 2.6 °F /  -16.3 °C 1011.7 in /  34256.2 hPa WSW 3.7 mph /  6 km/h 3.7 mph /  6 km/h 80 % 0.0 in /  0 mm
03:38 5.8 °F /  -14.6 °C 2.6 °F /  -16.3 °C 1011.7 in /  34256.2 hPa WSW 3.7 mph /  6 km/h   80 % 0.0 in /  0 mm
03:43 5.7 °F /  -14.6 °C 2.5 °F /  -16.4 °C 1011.7 in /  34256.2 hPa Calm     80 % 0.0 in /  0 mm
03:48 5.7 °F /  -14.6 °C 2.5 °F /  -16.4 °C 1011.7 in /  34256.2 hPa Calm     80 % 0.0 in /  0 mm
03:53 5.8 °F /  -14.6 °C 2.6 °F /  -16.3 °C 1011.7 in /  34256.2 hPa Calm     80 % 0.0 in /  0 mm
03:58 5.8 °F /  -14.6 °C 2.6 °F /  -16.3 °C 1011.7 in /  34256.2 hPa Calm     80 % 0.0 in /  0 mm
04:03 5.6 °F /  -14.7 °C 2.4 °F /  -16.4 °C 1011.7 in /  34256.2 hPa SW 3.7 mph /  6 km/h 3.7 mph /  6 km/h 80 % 0.0 in /  0 mm
04:08 5.4 °F /  -14.8 °C 2.2 °F /  -16.6 °C 1011.7 in /  34256.2 hPa WSW 3.2 mph /  5.1 km/h   80 % 0.0 in /  0 mm
04:13 5.6 °F /  -14.7 °C 2.2 °F /  -16.6 °C 1011.7 in /  34256.2 hPa SW 3.7 mph /  6 km/h 3.7 mph /  6 km/h 79 % 0.0 in /  0 mm
04:18 5.5 °F /  -14.7 °C 2.2 °F /  -16.6 °C 1011.7 in /  34256.2 hPa SW 3.7 mph /  6 km/h 3.7 mph /  6 km/h 79 % 0.0 in /  0 mm
04:23 5.4 °F /  -14.8 °C 2.1 °F /  -16.6 °C 1011.7 in /  34256.2 hPa WSW 4.2 mph /  6.8 km/h 4.2 mph /  6.8 km/h 79 % 0.0 in /  0 mm
04:28 5.5 °F /  -14.7 °C 2.2 °F /  -16.6 °C 1011.7 in /  34256.2 hPa Calm     79 % 0.0 in /  0 mm
04:33 5.6 °F /  -14.7 °C 2.4 °F /  -16.4 °C 1011.7 in /  34256.2 hPa SW 2.6 mph /  4.2 km/h 2.6 mph /  4.2 km/h 80 % 0.0 in /  0 mm
04:38 5.7 °F /  -14.6 °C 2.5 °F /  -16.4 °C 1011.7 in /  34256.2 hPa SW 1.9 mph /  3.1 km/h   80 % 0.0 in /  0 mm
04:43 5.7 °F /  -14.6 °C 2.7 °F /  -16.3 °C 1011.7 in /  34256.2 hPa Calm     81 % 0.0 in /  0 mm
04:48 5.7 °F /  -14.6 °C 2.7 °F /  -16.3 °C 1011.7 in /  34256.2 hPa Calm     81 % 0.0 in /  0 mm
04:53 5.7 °F /  -14.6 °C 2.5 °F /  -16.4 °C 1012.8 in /  34293.4 hPa Calm     80 % 0.0 in /  0 mm
04:58 5.7 °F /  -14.6 °C 2.5 °F /  -16.4 °C 1012.8 in /  34293.4 hPa WNW 2.3 mph /  3.7 km/h 2.3 mph /  3.7 km/h 80 % 0.0 in /  0 mm
05:03 5.8 °F /  -14.6 °C 2.6 °F /  -16.3 °C 1012.8 in /  34293.4 hPa WNW 1.9 mph /  3.1 km/h 1.9 mph /  3.1 km/h 80 % 0.0 in /  0 mm
05:08 5.7 °F /  -14.6 °C 2.7 °F /  -16.3 °C 1012.8 in /  34293.4 hPa Calm     81 % 0.0 in /  0 mm
05:13 5.7 °F /  -14.6 °C 2.7 °F /  -16.3 °C 1012.8 in /  34293.4 hPa Calm     81 % 0.0 in /  0 mm
05:18 5.7 °F /  -14.6 °C 2.5 °F /  -16.4 °C 1012.8 in /  34293.4 hPa Calm     80 % 0.0 in /  0 mm
05:23 5.6 °F /  -14.7 °C 2.6 °F /  -16.3 °C 1012.8 in /  34293.4 hPa North 1.9 mph /  3.1 km/h   81 % 0.0 in /  0 mm
05:28 5.6 °F /  -14.7 °C 2.6 °F /  -16.3 °C 1012.8 in /  34293.4 hPa NNE 3.7 mph /  6 km/h 3.7 mph /  6 km/h 81 % 0.0 in /  0 mm
05:33 5.6 °F /  -14.7 °C 2.6 °F /  -16.3 °C 1012.8 in /  34293.4 hPa Calm     81 % 0.0 in /  0 mm
05:38 5.6 °F /  -14.7 °C 2.4 °F /  -16.4 °C 1012.8 in /  34293.4 hPa SW 1.9 mph /  3.1 km/h   80 % 0.0 in /  0 mm
05:43 5.7 °F /  -14.6 °C 2.5 °F /  -16.4 °C 1012.8 in /  34293.4 hPa Calm     80 % 0.0 in /  0 mm
05:48 5.6 °F /  -14.7 °C 2.4 °F /  -16.4 °C 1012.8 in /  34293.4 hPa Calm     80 % 0.0 in /  0 mm
05:53 5.6 °F /  -14.7 °C 2.6 °F /  -16.3 °C 1012.8 in /  34293.4 hPa Calm     81 % 0.0 in /  0 mm
05:58 5.5 °F /  -14.7 °C 2.3 °F /  -16.5 °C 1012.8 in /  34293.4 hPa NNE 3.7 mph /  6 km/h 3.7 mph /  6 km/h 80 % 0.0 in /  0 mm
06:03 5.3 °F /  -14.8 °C 2.1 °F /  -16.6 °C 1012.8 in /  34293.4 hPa Calm     80 % 0.0 in /  0 mm
06:08 5.3 °F /  -14.8 °C 2.1 °F /  -16.6 °C 1013.8 in /  34327.3 hPa NNE 2.3 mph /  3.7 km/h   80 % 0.0 in /  0 mm
06:13 5.2 °F /  -14.9 °C 2.1 °F /  -16.6 °C 1013.8 in /  34327.3 hPa ENE 3.7 mph /  6 km/h 3.7 mph /  6 km/h 80 % 0.0 in /  0 mm
06:18 5.1 °F /  -14.9 °C 1.9 °F /  -16.7 °C 1013.8 in /  34327.3 hPa Calm     80 % 0.0 in /  0 mm
06:23 5.1 °F /  -14.9 °C 2.1 °F /  -16.6 °C 1013.8 in /  34327.3 hPa Calm     81 % 0.0 in /  0 mm
06:28 5.1 °F /  -14.9 °C 2.1 °F /  -16.6 °C 1013.8 in /  34327.3 hPa Calm     81 % 0.0 in /  0 mm
06:33 5.1 °F /  -14.9 °C 2.1 °F /  -16.6 °C 1013.8 in /  34327.3 hPa Calm     81 % 0.0 in /  0 mm
06:38 5.1 °F /  -14.9 °C 2.1 °F /  -16.6 °C 1013.8 in /  34327.3 hPa Calm     81 % 0.0 in /  0 mm
06:43 5.0 °F /  -15 °C 2.0 °F /  -16.7 °C 1013.8 in /  34327.3 hPa Calm     81 % 0.0 in /  0 mm
06:48 5.0 °F /  -15 °C 2.0 °F /  -16.7 °C 1013.8 in /  34327.3 hPa Calm     81 % 0.0 in /  0 mm
06:53 4.9 °F /  -15.1 °C 1.9 °F /  -16.7 °C 1013.8 in /  34327.3 hPa WSW 1.9 mph /  3.1 km/h   81 % 0.0 in /  0 mm
06:58 4.8 °F /  -15.1 °C 1.7 °F /  -16.8 °C 1013.8 in /  34327.3 hPa Calm     80 % 0.0 in /  0 mm
07:03 4.9 °F /  -15.1 °C 1.7 °F /  -16.8 °C 1013.8 in /  34327.3 hPa Calm     80 % 0.0 in /  0 mm
07:08 4.8 °F /  -15.1 °C 1.7 °F /  -16.8 °C 1013.8 in /  34327.3 hPa Calm     80 % 0.0 in /  0 mm
07:13 4.9 °F /  -15.1 °C 1.9 °F /  -16.7 °C 1013.8 in /  34327.3 hPa Calm     81 % 0.0 in /  0 mm
07:18 4.8 °F /  -15.1 °C 1.8 °F /  -16.8 °C 1013.8 in /  34327.3 hPa WSW 1.9 mph /  3.1 km/h   81 % 0.0 in /  0 mm
07:23 4.7 °F /  -15.2 °C 1.7 °F /  -16.8 °C 1013.8 in /  34327.3 hPa Calm     81 % 0.0 in /  0 mm
07:28 4.9 °F /  -15.1 °C 1.9 °F /  -16.7 °C 1013.8 in /  34327.3 hPa NNE 1.9 mph /  3.1 km/h   81 % 0.0 in /  0 mm
07:33 5.0 °F /  -15 °C 2.0 °F /  -16.7 °C 1013.8 in /  34327.3 hPa North 1.9 mph /  3.1 km/h   81 % 0.0 in /  0 mm
07:38 5.3 °F /  -14.8 °C 2.5 °F /  -16.4 °C 1013.8 in /  34327.3 hPa Calm     82 % 0.0 in /  0 mm
07:43 5.3 °F /  -14.8 °C 2.5 °F /  -16.4 °C 1013.8 in /  34327.3 hPa Calm     82 % 0.0 in /  0 mm
07:48 5.6 °F /  -14.7 °C 2.8 °F /  -16.2 °C 1013.8 in /  34327.3 hPa NNE 3.5 mph /  5.6 km/h 3.5 mph /  5.6 km/h 82 % 0.0 in /  0 mm
07:53 5.8 °F /  -14.6 °C 2.9 °F /  -16.2 °C 1013.8 in /  34327.3 hPa NNE 1.9 mph /  3.1 km/h   82 % 0.0 in /  0 mm
07:58 5.9 °F /  -14.5 °C 2.9 °F /  -16.2 °C 1013.8 in /  34327.3 hPa NE 3.7 mph /  6 km/h 3.7 mph /  6 km/h 81 % 0.0 in /  0 mm
08:03 6.0 °F /  -14.4 °C 2.8 °F /  -16.2 °C 1013.8 in /  34327.3 hPa NNE 3.9 mph /  6.3 km/h 3.9 mph /  6.3 km/h 80 % 0.0 in /  0 mm
08:08 6.2 °F /  -14.3 °C 3.0 °F /  -16.1 °C 1013.8 in /  34327.3 hPa ENE 4.7 mph /  7.6 km/h 4.7 mph /  7.6 km/h 80 % 0.0 in /  0 mm
08:13 6.5 °F /  -14.2 °C 3.3 °F /  -15.9 °C 1013.8 in /  34327.3 hPa NE 3.7 mph /  6 km/h 3.7 mph /  6 km/h 80 % 0.0 in /  0 mm
08:18 6.7 °F /  -14.1 °C 3.3 °F /  -15.9 °C 1013.8 in /  34327.3 hPa NNE 3.7 mph /  6 km/h 3.7 mph /  6 km/h 79 % 0.0 in /  0 mm
08:23 7.3 °F /  -13.7 °C 3.9 °F /  -15.6 °C 1013.8 in /  34327.3 hPa Calm     79 % 0.0 in /  0 mm
08:28 7.4 °F /  -13.7 °C 3.8 °F /  -15.7 °C 1013.8 in /  34327.3 hPa SW 3.5 mph /  5.6 km/h 3.5 mph /  5.6 km/h 78 % 0.0 in /  0 mm
08:33 7.2 °F /  -13.8 °C 3.6 °F /  -15.8 °C 1013.8 in /  34327.3 hPa NW 1.9 mph /  3.1 km/h   78 % 0.0 in /  0 mm
08:38 8.0 °F /  -13.3 °C 4.4 °F /  -15.3 °C 1013.8 in /  34327.3 hPa North 3.7 mph /  6 km/h   78 % 0.0 in /  0 mm
08:43 8.3 °F /  -13.2 °C 4.5 °F /  -15.3 °C 1013.8 in /  34327.3 hPa SW 3.5 mph /  5.6 km/h   77 % 0.0 in /  0 mm
08:48 7.8 °F /  -13.4 °C 3.8 °F /  -15.7 °C 1013.8 in /  34327.3 hPa SW 1.9 mph /  3.1 km/h 1.9 mph /  3.1 km/h 76 % 0.0 in /  0 mm
08:53 8.0 °F /  -13.3 °C 4.0 °F /  -15.6 °C 1013.8 in /  34327.3 hPa SW 3.2 mph /  5.1 km/h 3.2 mph /  5.1 km/h 76 % 0.0 in /  0 mm
08:58 8.0 °F /  -13.3 °C 4.0 °F /  -15.6 °C 1013.8 in /  34327.3 hPa SW 3.7 mph /  6 km/h 3.7 mph /  6 km/h 76 % 0.0 in /  0 mm
09:03 8.6 °F /  -13 °C 4.6 °F /  -15.2 °C 1013.8 in /  34327.3 hPa Calm     76 % 0.0 in /  0 mm
09:08 9.2 °F /  -12.7 °C 5.0 °F /  -15 °C 1013.8 in /  34327.3 hPa East 1.9 mph /  3.1 km/h   75 % 0.0 in /  0 mm
09:13 9.8 °F /  -12.3 °C 5.4 °F /  -14.8 °C 1013.8 in /  34327.3 hPa East 3.7 mph /  6 km/h 3.7 mph /  6 km/h 74 % 0.0 in /  0 mm
09:18 10.6 °F /  -11.9 °C 5.9 °F /  -14.5 °C 1013.8 in /  34327.3 hPa Calm     73 % 0.0 in /  0 mm
09:23 10.1 °F /  -12.2 °C 5.5 °F /  -14.7 °C 1013.8 in /  34327.3 hPa WSW 3.7 mph /  6 km/h 3.7 mph /  6 km/h 73 % 0.0 in /  0 mm
09:28 10.7 °F /  -11.8 °C 6.1 °F /  -14.4 °C 1013.8 in /  34327.3 hPa ESE 3.7 mph /  6 km/h 3.7 mph /  6 km/h 73 % 0.0 in /  0 mm
09:33 11.1 °F /  -11.6 °C 6.1 °F /  -14.4 °C 1013.8 in /  34327.3 hPa NNE 1.9 mph /  3.1 km/h 1.9 mph /  3.1 km/h 71 % 0.0 in /  0 mm
09:38 11.2 °F /  -11.6 °C 6.1 °F /  -14.4 °C 1013.8 in /  34327.3 hPa West 3.7 mph /  6 km/h 3.7 mph /  6 km/h 71 % 0.0 in /  0 mm
09:43 11.5 °F /  -11.4 °C 6.4 °F /  -14.2 °C 1013.8 in /  34327.3 hPa SW 3.7 mph /  6 km/h 3.7 mph /  6 km/h 71 % 0.0 in /  0 mm
09:48 11.8 °F /  -11.2 °C 6.3 °F /  -14.3 °C 1013.8 in /  34327.3 hPa SSE 3.7 mph /  6 km/h   69 % 0.0 in /  0 mm
09:53 12.4 °F /  -10.9 °C 6.9 °F /  -13.9 °C 1013.8 in /  34327.3 hPa SW 3.2 mph /  5.1 km/h 3.2 mph /  5.1 km/h 69 % 0.0 in /  0 mm
09:58 12.1 °F /  -11.1 °C 6.6 °F /  -14.1 °C 1013.8 in /  34327.3 hPa SW 3.7 mph /  6 km/h 3.7 mph /  6 km/h 69 % 0.0 in /  0 mm
10:03 12.3 °F /  -10.9 °C 6.8 °F /  -14 °C 1013.8 in /  34327.3 hPa SW 1.9 mph /  3.1 km/h 1.9 mph /  3.1 km/h 69 % 0.0 in /  0 mm
10:08 12.2 °F /  -11 °C 6.7 °F /  -14.1 °C 1014.8 in /  34361.1 hPa WSW 6.1 mph /  9.8 km/h 6.1 mph /  9.8 km/h 69 % 0.0 in /  0 mm
10:13 12.2 °F /  -11 °C 6.7 °F /  -14.1 °C 1014.8 in /  34361.1 hPa West 3.7 mph /  6 km/h 4.2 mph /  6.8 km/h 69 % 0.0 in /  0 mm
10:18 13.0 °F /  -10.6 °C 7.2 °F /  -13.8 °C 1014.8 in /  34361.1 hPa SW 1.9 mph /  3.1 km/h 1.9 mph /  3.1 km/h 68 % 0.0 in /  0 mm
10:23 13.0 °F /  -10.6 °C 7.2 °F /  -13.8 °C 1014.8 in /  34361.1 hPa WSW 4.7 mph /  7.6 km/h 4.7 mph /  7.6 km/h 68 % 0.0 in /  0 mm
10:28 13.4 °F /  -10.3 °C 7.4 °F /  -13.7 °C 1014.8 in /  34361.1 hPa ENE 3.2 mph /  5.1 km/h   67 % 0.0 in /  0 mm
10:33 13.7 °F /  -10.2 °C 7.4 °F /  -13.7 °C 1014.8 in /  34361.1 hPa NNE 3.7 mph /  6 km/h 3.7 mph /  6 km/h 66 % 0.0 in /  0 mm
10:38 14.0 °F /  -10 °C 7.5 °F /  -13.6 °C 1013.8 in /  34327.3 hPa NE 3.7 mph /  6 km/h 3.7 mph /  6 km/h 65 % 0.0 in /  0 mm
10:43 14.7 °F /  -9.6 °C 8.4 °F /  -13.1 °C 1013.8 in /  34327.3 hPa SW 3.7 mph /  6 km/h 3.7 mph /  6 km/h 66 % 0.0 in /  0 mm
10:48 15.7 °F /  -9.1 °C 9.1 °F /  -12.7 °C 1013.8 in /  34327.3 hPa WSW 3.7 mph /  6 km/h 3.7 mph /  6 km/h 65 % 0.0 in /  0 mm
10:53 16.0 °F /  -8.9 °C 9.2 °F /  -12.7 °C 1014.8 in /  34361.1 hPa West 3.2 mph /  5.1 km/h 3.2 mph /  5.1 km/h 64 % 0.0 in /  0 mm
10:58 15.9 °F /  -8.9 °C 9.1 °F /  -12.7 °C 1014.8 in /  34361.1 hPa WNW 7.4 mph /  11.9 km/h 7.4 mph /  11.9 km/h 64 % 0.0 in /  0 mm
11:03 16.3 °F /  -8.7 °C 9.5 °F /  -12.5 °C 1014.8 in /  34361.1 hPa SSW 7.9 mph /  12.7 km/h 7.9 mph /  12.7 km/h 64 % 0.0 in /  0 mm
11:08 17.1 °F /  -8.3 °C 9.5 °F /  -12.5 °C 1014.8 in /  34361.1 hPa SW 3.7 mph /  6 km/h 3.7 mph /  6 km/h 61 % 0.0 in /  0 mm
11:13 17.3 °F /  -8.2 °C 9.4 °F /  -12.6 °C 1014.8 in /  34361.1 hPa SW 3.9 mph /  6.3 km/h 3.9 mph /  6.3 km/h 60 % 0.0 in /  0 mm
11:18 16.6 °F /  -8.6 °C 9.3 °F /  -12.6 °C 1014.8 in /  34361.1 hPa SW 7.6 mph /  12.2 km/h 7.6 mph /  12.2 km/h 62 % 0.0 in /  0 mm
11:23 16.9 °F /  -8.4 °C 9.6 °F /  -12.4 °C 1013.8 in /  34327.3 hPa East 7.4 mph /  11.9 km/h 7.4 mph /  11.9 km/h 62 % 0.0 in /  0 mm
11:28 16.7 °F /  -8.5 °C 9.1 °F /  -12.7 °C 1013.8 in /  34327.3 hPa West 12.2 mph /  19.6 km/h 12.2 mph /  19.6 km/h 61 % 0.0 in /  0 mm
11:33 17.2 °F /  -8.2 °C 9.1 °F /  -12.7 °C 1013.8 in /  34327.3 hPa SSW 7.4 mph /  11.9 km/h 7.4 mph /  11.9 km/h 59 % 0.0 in /  0 mm
11:38 17.6 °F /  -8 °C 9.5 °F /  -12.5 °C 1013.8 in /  34327.3 hPa SW 9.3 mph /  15 km/h 9.3 mph /  15 km/h 59 % 0.0 in /  0 mm
11:43 17.5 °F /  -8.1 °C 9.2 °F /  -12.7 °C 1013.8 in /  34327.3 hPa SSW 14.8 mph /  23.8 km/h 14.8 mph /  23.8 km/h 58 % 0.0 in /  0 mm
11:48 17.4 °F /  -8.1 °C 8.8 °F /  -12.9 °C 1013.8 in /  34327.3 hPa SSW 14.8 mph /  23.8 km/h 14.8 mph /  23.8 km/h 57 % 0.0 in /  0 mm
11:53 17.4 °F /  -8.1 °C 9.1 °F /  -12.7 °C 1013.8 in /  34327.3 hPa SW 11.1 mph /  17.9 km/h 11.1 mph /  17.9 km/h 58 % 0.0 in /  0 mm
11:58 17.9 °F /  -7.8 °C 9.5 °F /  -12.5 °C 1013.8 in /  34327.3 hPa WSW 5.8 mph /  9.3 km/h 5.8 mph /  9.3 km/h 58 % 0.0 in /  0 mm
12:03 18.0 °F /  -7.8 °C 9.6 °F /  -12.4 °C 1013.8 in /  34327.3 hPa WSW 9.3 mph /  15 km/h 9.3 mph /  15 km/h 58 % 0.0 in /  0 mm
12:08 17.8 °F /  -7.9 °C 9.2 °F /  -12.7 °C 1012.8 in /  34293.4 hPa SW 9.3 mph /  15 km/h 9.3 mph /  15 km/h 57 % 0.0 in /  0 mm
12:13 17.7 °F /  -7.9 °C 9.1 °F /  -12.7 °C 1012.8 in /  34293.4 hPa WSW 9.3 mph /  15 km/h 9.3 mph /  15 km/h 57 % 0.0 in /  0 mm
12:18 18.1 °F /  -7.7 °C 9.7 °F /  -12.4 °C 1012.8 in /  34293.4 hPa WSW 7.4 mph /  11.9 km/h 7.4 mph /  11.9 km/h 58 % 0.0 in /  0 mm
12:23 18.7 °F /  -7.4 °C 10.0 °F /  -12.2 °C 1013.8 in /  34327.3 hPa SW 3.7 mph /  6 km/h 3.7 mph /  6 km/h 57 % 0.0 in /  0 mm
12:28 18.7 °F /  -7.4 °C 10.0 °F /  -12.2 °C 1013.8 in /  34327.3 hPa SW 10.0 mph /  16.1 km/h 10.0 mph /  16.1 km/h 57 % 0.0 in /  0 mm
12:33 19.0 °F /  -7.2 °C 9.8 °F /  -12.3 °C 1013.8 in /  34327.3 hPa SW 5.6 mph /  9 km/h 5.6 mph /  9 km/h 55 % 0.0 in /  0 mm
12:38 19.0 °F /  -7.2 °C 10.0 °F /  -12.2 °C 1013.8 in /  34327.3 hPa SSW 11.1 mph /  17.9 km/h 11.1 mph /  17.9 km/h 56 % 0.0 in /  0 mm
12:43 18.9 °F /  -7.3 °C 9.9 °F /  -12.3 °C 1013.8 in /  34327.3 hPa WSW 7.9 mph /  12.7 km/h 7.9 mph /  12.7 km/h 56 % 0.0 in /  0 mm
12:48 18.7 °F /  -7.4 °C 9.4 °F /  -12.6 °C 1013.8 in /  34327.3 hPa South 11.1 mph /  17.9 km/h 11.1 mph /  17.9 km/h 55 % 0.0 in /  0 mm
12:53 18.8 °F /  -7.3 °C 9.8 °F /  -12.3 °C 1013.8 in /  34327.3 hPa WSW 7.4 mph /  11.9 km/h 7.4 mph /  11.9 km/h 56 % 0.0 in /  0 mm
12:58 19.1 °F /  -7.2 °C 9.8 °F /  -12.3 °C 1013.8 in /  34327.3 hPa SSW 7.4 mph /  11.9 km/h 7.4 mph /  11.9 km/h 55 % 0.0 in /  0 mm
13:03 19.3 °F /  -7.1 °C 10.1 °F /  -12.2 °C 1013.8 in /  34327.3 hPa West 7.4 mph /  11.9 km/h 7.4 mph /  11.9 km/h 55 % 0.0 in /  0 mm
13:08 19.5 °F /  -6.9 °C 9.9 °F /  -12.3 °C 1013.8 in /  34327.3 hPa SW 11.1 mph /  17.9 km/h 11.1 mph /  17.9 km/h 54 % 0.0 in /  0 mm
13:13 19.2 °F /  -7.1 °C 9.4 °F /  -12.6 °C 1013.8 in /  34327.3 hPa SSW 13.0 mph /  20.9 km/h 13.0 mph /  20.9 km/h 53 % 0.0 in /  0 mm
13:18 19.6 °F /  -6.9 °C 10.1 °F /  -12.2 °C 1013.8 in /  34327.3 hPa West 7.4 mph /  11.9 km/h 7.4 mph /  11.9 km/h 54 % 0.0 in /  0 mm
13:23 19.5 °F /  -6.9 °C 9.9 °F /  -12.3 °C 1012.8 in /  34293.4 hPa SW 11.1 mph /  17.9 km/h 11.1 mph /  17.9 km/h 54 % 0.0 in /  0 mm
13:28 19.2 °F /  -7.1 °C 9.4 °F /  -12.6 °C 1012.8 in /  34293.4 hPa SW 7.4 mph /  11.9 km/h 7.4 mph /  11.9 km/h 53 % 0.0 in /  0 mm
13:33 19.1 °F /  -7.2 °C 9.3 °F /  -12.6 °C 1012.8 in /  34293.4 hPa SW 6.1 mph /  9.8 km/h 6.1 mph /  9.8 km/h 53 % 0.0 in /  0 mm
13:38 19.1 °F /  -7.2 °C 9.6 °F /  -12.4 °C 1012.8 in /  34293.4 hPa SW 5.6 mph /  9 km/h 5.6 mph /  9 km/h 54 % 0.0 in /  0 mm
13:43 19.4 °F /  -7 °C 9.6 °F /  -12.4 °C 1012.8 in /  34293.4 hPa SW 9.3 mph /  15 km/h 9.3 mph /  15 km/h 53 % 0.0 in /  0 mm
13:48 19.8 °F /  -6.8 °C 10.2 °F /  -12.1 °C 1012.8 in /  34293.4 hPa SSE 3.7 mph /  6 km/h 3.7 mph /  6 km/h 54 % 0.0 in /  0 mm
13:53 20.5 °F /  -6.4 °C 10.9 °F /  -11.7 °C 1012.8 in /  34293.4 hPa WSW 9.7 mph /  15.6 km/h 9.7 mph /  15.6 km/h 54 % 0.0 in /  0 mm
13:58 20.5 °F /  -6.4 °C 10.6 °F /  -11.9 °C 1012.8 in /  34293.4 hPa SW 7.9 mph /  12.7 km/h 7.9 mph /  12.7 km/h 53 % 0.0 in /  0 mm
14:03 20.6 °F /  -6.3 °C 10.7 °F /  -11.8 °C 1012.8 in /  34293.4 hPa South 9.7 mph /  15.6 km/h 9.7 mph /  15.6 km/h 53 % 0.0 in /  0 mm
14:08 20.6 °F /  -6.3 °C 10.7 °F /  -11.8 °C 1012.8 in /  34293.4 hPa South 9.3 mph /  15 km/h 9.3 mph /  15 km/h 53 % 0.0 in /  0 mm
14:13 20.0 °F /  -6.7 °C 9.8 °F /  -12.3 °C 1012.8 in /  34293.4 hPa South 9.3 mph /  15 km/h 9.3 mph /  15 km/h 52 % 0.0 in /  0 mm
14:18 20.3 °F /  -6.5 °C 10.1 °F /  -12.2 °C 1012.8 in /  34293.4 hPa SSE 7.4 mph /  11.9 km/h 7.4 mph /  11.9 km/h 52 % 0.0 in /  0 mm
14:23 20.3 °F /  -6.5 °C 10.1 °F /  -12.2 °C 1012.8 in /  34293.4 hPa SSW 9.3 mph /  15 km/h 9.3 mph /  15 km/h 52 % 0.0 in /  0 mm
14:28 19.8 °F /  -6.8 °C 9.4 °F /  -12.6 °C 1012.8 in /  34293.4 hPa SW 14.8 mph /  23.8 km/h 14.8 mph /  23.8 km/h 51 % 0.0 in /  0 mm
14:33 19.9 °F /  -6.7 °C 9.4 °F /  -12.6 °C 1012.8 in /  34293.4 hPa South 7.4 mph /  11.9 km/h 7.4 mph /  11.9 km/h 51 % 0.0 in /  0 mm
14:38 19.6 °F /  -6.9 °C 9.2 °F /  -12.7 °C 1012.8 in /  34293.4 hPa SW 9.7 mph /  15.6 km/h 9.7 mph /  15.6 km/h 51 % 0.0 in /  0 mm
14:43 20.0 °F /  -6.7 °C 9.6 °F /  -12.4 °C 1012.8 in /  34293.4 hPa SW 7.4 mph /  11.9 km/h 7.4 mph /  11.9 km/h 51 % 0.0 in /  0 mm
14:48 19.8 °F /  -6.8 °C 9.4 °F /  -12.6 °C 1012.8 in /  34293.4 hPa SW 14.8 mph /  23.8 km/h 14.8 mph /  23.8 km/h 51 % 0.0 in /  0 mm
14:53 19.9 °F /  -6.7 °C 9.2 °F /  -12.7 °C 1012.8 in /  34293.4 hPa SW 9.3 mph /  15 km/h 9.3 mph /  15 km/h 50 % 0.0 in /  0 mm
14:58 20.3 °F /  -6.5 °C 9.8 °F /  -12.3 °C 1012.8 in /  34293.4 hPa SSW 9.3 mph /  15 km/h 9.3 mph /  15 km/h 51 % 0.0 in /  0 mm
15:03 20.2 °F /  -6.6 °C 9.7 °F /  -12.4 °C 1012.8 in /  34293.4 hPa SSW 9.3 mph /  15 km/h 9.3 mph /  15 km/h 51 % 0.0 in /  0 mm
15:08 20.4 °F /  -6.4 °C 9.9 °F /  -12.3 °C 1011.7 in /  34256.2 hPa WSW 9.3 mph /  15 km/h 9.3 mph /  15 km/h 51 % 0.0 in /  0 mm
15:13 20.1 °F /  -6.6 °C 9.7 °F /  -12.4 °C 1011.7 in /  34256.2 hPa SSE 11.1 mph /  17.9 km/h 11.1 mph /  17.9 km/h 51 % 0.0 in /  0 mm
15:18 19.7 °F /  -6.8 °C 9.3 °F /  -12.6 °C 1011.7 in /  34256.2 hPa SSW 13.0 mph /  20.9 km/h 13.0 mph /  20.9 km/h 51 % 0.0 in /  0 mm
15:23 19.5 °F /  -6.9 °C 9.1 °F /  -12.7 °C 1012.8 in /  34293.4 hPa West 13.0 mph /  20.9 km/h 13.0 mph /  20.9 km/h 51 % 0.0 in /  0 mm
15:28 19.2 °F /  -7.1 °C 8.8 °F /  -12.9 °C 1012.8 in /  34293.4 hPa SSW 9.3 mph /  15 km/h 9.3 mph /  15 km/h 51 % 0.0 in /  0 mm
15:33 19.0 °F /  -7.2 °C 8.6 °F /  -13 °C 1012.8 in /  34293.4 hPa WSW 9.3 mph /  15 km/h 9.3 mph /  15 km/h 51 % 0.0 in /  0 mm
15:38 18.8 °F /  -7.3 °C 8.7 °F /  -12.9 °C 1012.8 in /  34293.4 hPa WSW 9.5 mph /  15.3 km/h 9.5 mph /  15.3 km/h 52 % 0.0 in /  0 mm
15:43 18.6 °F /  -7.4 °C 8.6 °F /  -13 °C 1012.8 in /  34293.4 hPa WSW 9.3 mph /  15 km/h 9.3 mph /  15 km/h 52 % 0.0 in /  0 mm
15:48 18.7 °F /  -7.4 °C 8.6 °F /  -13 °C 1012.8 in /  34293.4 hPa SSW 11.1 mph /  17.9 km/h 11.1 mph /  17.9 km/h 52 % 0.0 in /  0 mm
15:53 18.4 °F /  -7.6 °C 8.4 °F /  -13.1 °C 1012.8 in /  34293.4 hPa SSW 16.7 mph /  26.9 km/h 16.7 mph /  26.9 km/h 52 % 0.0 in /  0 mm
15:58 18.5 °F /  -7.5 °C 8.4 °F /  -13.1 °C 1012.8 in /  34293.4 hPa SW 13.0 mph /  20.9 km/h 13.0 mph /  20.9 km/h 52 % 0.0 in /  0 mm
16:03 18.7 °F /  -7.4 °C 8.6 °F /  -13 °C 1012.8 in /  34293.4 hPa WSW 5.6 mph /  9 km/h 6.4 mph /  10.3 km/h 52 % 0.0 in /  0 mm
16:08 18.9 °F /  -7.3 °C 8.8 °F /  -12.9 °C 1011.7 in /  34256.2 hPa South 9.3 mph /  15 km/h 9.3 mph /  15 km/h 52 % 0.0 in /  0 mm
16:13 19.0 °F /  -7.2 °C 8.6 °F /  -13 °C 1011.7 in /  34256.2 hPa WSW 11.1 mph /  17.9 km/h 11.1 mph /  17.9 km/h 51 % 0.0 in /  0 mm
16:18 18.9 °F /  -7.3 °C 8.8 °F /  -12.9 °C 1011.7 in /  34256.2 hPa SW 9.3 mph /  15 km/h 9.3 mph /  15 km/h 52 % 0.0 in /  0 mm
16:23 18.7 °F /  -7.4 °C 8.6 °F /  -13 °C 1011.7 in /  34256.2 hPa WSW 14.8 mph /  23.8 km/h 14.8 mph /  23.8 km/h 52 % 0.0 in /  0 mm
16:28 19.2 °F /  -7.1 °C 8.8 °F /  -12.9 °C 1011.7 in /  34256.2 hPa SSW 10.3 mph /  16.6 km/h 10.3 mph /  16.6 km/h 51 % 0.0 in /  0 mm
16:33 18.9 °F /  -7.3 °C 8.6 °F /  -13 °C 1011.7 in /  34256.2 hPa SSW 14.8 mph /  23.8 km/h 14.8 mph /  23.8 km/h 51 % 0.0 in /  0 mm
16:38 18.4 °F /  -7.6 °C 8.1 °F /  -13.3 °C 1011.7 in /  34256.2 hPa SW 14.8 mph /  23.8 km/h 14.8 mph /  23.8 km/h 51 % 0.0 in /  0 mm
16:43 18.6 °F /  -7.4 °C 8.3 °F /  -13.2 °C 1011.7 in /  34256.2 hPa SW 9.3 mph /  15 km/h 9.5 mph /  15.3 km/h 51 % 0.0 in /  0 mm
16:48 18.6 °F /  -7.4 °C 8.3 °F /  -13.2 °C 1011.7 in /  34256.2 hPa West 16.7 mph /  26.9 km/h 16.7 mph /  26.9 km/h 51 % 0.0 in /  0 mm
16:53 18.8 °F /  -7.3 °C 8.4 °F /  -13.1 °C 1011.7 in /  34256.2 hPa West 11.1 mph /  17.9 km/h 11.1 mph /  17.9 km/h 51 % 0.0 in /  0 mm
16:58 18.6 °F /  -7.4 °C 8.3 °F /  -13.2 °C 1011.7 in /  34256.2 hPa SSW 10.0 mph /  16.1 km/h 10.0 mph /  16.1 km/h 51 % 0.0 in /  0 mm
17:03 18.3 °F /  -7.6 °C 8.3 °F /  -13.2 °C 1011.7 in /  34256.2 hPa SW 13.0 mph /  20.9 km/h 13.0 mph /  20.9 km/h 52 % 0.0 in /  0 mm
17:08 18.1 °F /  -7.7 °C 8.1 °F /  -13.3 °C 1011.7 in /  34256.2 hPa SW 9.3 mph /  15 km/h 9.3 mph /  15 km/h 52 % 0.0 in /  0 mm
17:13 18.4 °F /  -7.6 °C 8.4 °F /  -13.1 °C 1011.7 in /  34256.2 hPa SW 10.3 mph /  16.6 km/h 10.3 mph /  16.6 km/h 52 % 0.0 in /  0 mm
17:18 18.4 °F /  -7.6 °C 8.4 °F /  -13.1 °C 1011.7 in /  34256.2 hPa WSW 13.0 mph /  20.9 km/h 13.0 mph /  20.9 km/h 52 % 0.0 in /  0 mm
17:23 18.3 °F /  -7.6 °C 8.6 °F /  -13 °C 1011.7 in /  34256.2 hPa WSW 9.3 mph /  15 km/h 9.3 mph /  15 km/h 53 % 0.0 in /  0 mm
17:28 18.2 °F /  -7.7 °C 8.4 °F /  -13.1 °C 1011.7 in /  34256.2 hPa SW 9.5 mph /  15.3 km/h 9.5 mph /  15.3 km/h 53 % 0.0 in /  0 mm
17:33 18.1 °F /  -7.7 °C 8.4 °F /  -13.1 °C 1011.7 in /  34256.2 hPa WSW 9.3 mph /  15 km/h 9.3 mph /  15 km/h 53 % 0.0 in /  0 mm
17:38 18.2 °F /  -7.7 °C 8.4 °F /  -13.1 °C 1011.7 in /  34256.2 hPa SW 9.3 mph /  15 km/h 9.3 mph /  15 km/h 53 % 0.0 in /  0 mm
17:43 18.4 °F /  -7.6 °C 8.7 °F /  -12.9 °C 1011.7 in /  34256.2 hPa South 1.9 mph /  3.1 km/h   53 % 0.0 in /  0 mm
17:48 18.6 °F /  -7.4 °C 8.8 °F /  -12.9 °C 1011.7 in /  34256.2 hPa SW 7.4 mph /  11.9 km/h 7.4 mph /  11.9 km/h 53 % 0.0 in /  0 mm
17:53 18.7 °F /  -7.4 °C 8.9 °F /  -12.8 °C 1011.7 in /  34256.2 hPa SSW 5.6 mph /  9 km/h 5.6 mph /  9 km/h 53 % 0.0 in /  0 mm
17:58 18.7 °F /  -7.4 °C 8.9 °F /  -12.8 °C 1011.7 in /  34256.2 hPa SW 3.9 mph /  6.3 km/h 3.9 mph /  6.3 km/h 53 % 0.0 in /  0 mm
18:03 18.4 °F /  -7.6 °C 8.7 °F /  -12.9 °C 1011.7 in /  34256.2 hPa SW 9.3 mph /  15 km/h 9.3 mph /  15 km/h 53 % 0.0 in /  0 mm
18:18 12.9 °F /  -10.6 °C 1.8 °F /  -16.8 °C 1011.7 in /  34256.2 hPa SW 11.1 mph /  17.9 km/h 11.1 mph /  17.9 km/h 47 % 0.0 in /  0 mm
18:23 18.0 °F /  -7.8 °C 8.6 °F /  -13 °C 1011.7 in /  34256.2 hPa SW 5.0 mph /  8 km/h 5.0 mph /  8 km/h 54 % 0.0 in /  0 mm
18:28 17.6 °F /  -8 °C 8.4 °F /  -13.1 °C 1011.7 in /  34256.2 hPa SW 3.7 mph /  6 km/h 3.7 mph /  6 km/h 55 % 0.0 in /  0 mm
18:33 17.3 °F /  -8.2 °C 8.2 °F /  -13.2 °C 1011.7 in /  34256.2 hPa SW 3.7 mph /  6 km/h 3.7 mph /  6 km/h 55 % 0.0 in /  0 mm
18:38 17.1 °F /  -8.3 °C 8.2 °F /  -13.2 °C 1011.7 in /  34256.2 hPa WSW 3.7 mph /  6 km/h 3.7 mph /  6 km/h 56 % 0.0 in /  0 mm
18:43 17.0 °F /  -8.3 °C 8.2 °F /  -13.2 °C 1011.7 in /  34256.2 hPa SW 3.5 mph /  5.6 km/h 3.5 mph /  5.6 km/h 56 % 0.0 in /  0 mm
18:48 16.7 °F /  -8.5 °C 8.4 °F /  -13.1 °C 1011.7 in /  34256.2 hPa SW 3.7 mph /  6 km/h 3.7 mph /  6 km/h 58 % 0.0 in /  0 mm
18:53 16.5 °F /  -8.6 °C 8.2 °F /  -13.2 °C 1011.7 in /  34256.2 hPa WSW 3.7 mph /  6 km/h 3.7 mph /  6 km/h 58 % 0.0 in /  0 mm
18:58 16.3 °F /  -8.7 °C 8.3 °F /  -13.2 °C 1011.7 in /  34256.2 hPa WSW 3.7 mph /  6 km/h 3.7 mph /  6 km/h 59 % 0.0 in /  0 mm
19:03 16.1 °F /  -8.8 °C 8.3 °F /  -13.2 °C 1011.7 in /  34256.2 hPa Calm     60 % 0.0 in /  0 mm
19:08 15.8 °F /  -9 °C 8.3 °F /  -13.2 °C 1011.7 in /  34256.2 hPa ESE 2.3 mph /  3.7 km/h   61 % 0.0 in /  0 mm
19:13 15.6 °F /  -9.1 °C 8.3 °F /  -13.2 °C 1011.7 in /  34256.2 hPa NE 5.6 mph /  9 km/h 5.6 mph /  9 km/h 62 % 0.0 in /  0 mm
19:18 15.2 °F /  -9.3 °C 8.7 °F /  -12.9 °C 1011.7 in /  34256.2 hPa East 7.4 mph /  11.9 km/h 7.4 mph /  11.9 km/h 65 % 0.0 in /  0 mm
19:23 14.9 °F /  -9.5 °C 8.8 °F /  -12.9 °C 1010.7 in /  34222.3 hPa ESE 5.6 mph /  9 km/h 5.6 mph /  9 km/h 67 % 0.0 in /  0 mm
19:28 14.7 °F /  -9.6 °C 8.6 °F /  -13 °C 1010.7 in /  34222.3 hPa ENE 3.7 mph /  6 km/h 3.7 mph /  6 km/h 67 % 0.0 in /  0 mm
19:33 14.4 °F /  -9.8 °C 8.6 °F /  -13 °C 1010.7 in /  34222.3 hPa East 3.7 mph /  6 km/h 3.7 mph /  6 km/h 68 % 0.0 in /  0 mm
19:38 14.1 °F /  -9.9 °C 8.5 °F /  -13.1 °C 1011.7 in /  34256.2 hPa East 7.4 mph /  11.9 km/h 7.4 mph /  11.9 km/h 69 % 0.0 in /  0 mm
19:43 13.9 °F /  -10.1 °C 8.5 °F /  -13.1 °C 1011.7 in /  34256.2 hPa ESE 3.7 mph /  6 km/h 3.7 mph /  6 km/h 70 % 0.0 in /  0 mm
19:48 13.7 °F /  -10.2 °C 8.3 °F /  -13.2 °C 1011.7 in /  34256.2 hPa East 1.9 mph /  3.1 km/h 1.9 mph /  3.1 km/h 70 % 0.0 in /  0 mm
19:53 13.6 °F /  -10.2 °C 8.0 °F /  -13.3 °C 1010.7 in /  34222.3 hPa Calm     69 % 0.0 in /  0 mm
19:58 13.5 °F /  -10.3 °C 7.9 °F /  -13.4 °C 1010.7 in /  34222.3 hPa Calm     69 % 0.0 in /  0 mm
20:03 13.3 °F /  -10.4 °C 7.9 °F /  -13.4 °C 1010.7 in /  34222.3 hPa Calm     70 % 0.0 in /  0 mm
20:08 13.2 °F /  -10.4 °C 7.8 °F /  -13.4 °C 1011.7 in /  34256.2 hPa Calm     70 % 0.0 in /  0 mm
20:13 13.1 °F /  -10.5 °C 7.7 °F /  -13.5 °C 1011.7 in /  34256.2 hPa Calm     70 % 0.0 in /  0 mm
20:18 13.0 °F /  -10.6 °C 7.9 °F /  -13.4 °C 1011.7 in /  34256.2 hPa Calm     71 % 0.0 in /  0 mm
20:23 13.0 °F /  -10.6 °C 8.1 °F /  -13.3 °C 1011.7 in /  34256.2 hPa Calm     72 % 0.0 in /  0 mm
20:28 12.9 °F /  -10.6 °C 8.2 °F /  -13.2 °C 1011.7 in /  34256.2 hPa ENE 1.9 mph /  3.1 km/h   73 % 0.0 in /  0 mm
20:33 12.8 °F /  -10.7 °C 8.5 °F /  -13.1 °C 1011.7 in /  34256.2 hPa ESE 3.5 mph /  5.6 km/h 3.5 mph /  5.6 km/h 75 % 0.0 in /  0 mm
20:38 12.7 °F /  -10.7 °C 8.2 °F /  -13.2 °C 1011.7 in /  34256.2 hPa Calm     74 % 0.0 in /  0 mm
20:43 12.6 °F /  -10.8 °C 8.1 °F /  -13.3 °C 1011.7 in /  34256.2 hPa WSW 2.6 mph /  4.2 km/h 2.6 mph /  4.2 km/h 74 % 0.0 in /  0 mm
20:48 12.5 °F /  -10.8 °C 7.8 °F /  -13.4 °C 1011.7 in /  34256.2 hPa Calm     73 % 0.0 in /  0 mm
20:53 12.5 °F /  -10.8 °C 7.8 °F /  -13.4 °C 1011.7 in /  34256.2 hPa Calm     73 % 0.0 in /  0 mm
20:58 12.4 °F /  -10.9 °C 7.9 °F /  -13.4 °C 1011.7 in /  34256.2 hPa West 1.9 mph /  3.1 km/h   74 % 0.0 in /  0 mm
21:03 12.3 °F /  -10.9 °C 7.6 °F /  -13.6 °C 1011.7 in /  34256.2 hPa WSW 3.7 mph /  6 km/h 3.7 mph /  6 km/h 73 % 0.0 in /  0 mm
21:08 12.3 °F /  -10.9 °C 7.4 °F /  -13.7 °C 1011.7 in /  34256.2 hPa SW 3.7 mph /  6 km/h 3.7 mph /  6 km/h 72 % 0.0 in /  0 mm
21:13 12.1 °F /  -11.1 °C 7.2 °F /  -13.8 °C 1011.7 in /  34256.2 hPa SW 3.7 mph /  6 km/h 3.7 mph /  6 km/h 72 % 0.0 in /  0 mm
21:18 12.0 °F /  -11.1 °C 7.1 °F /  -13.8 °C 1011.7 in /  34256.2 hPa WSW 3.7 mph /  6 km/h 3.7 mph /  6 km/h 72 % 0.0 in /  0 mm
21:23 12.0 °F /  -11.1 °C 7.1 °F /  -13.8 °C 1011.7 in /  34256.2 hPa WSW 3.9 mph /  6.3 km/h 3.9 mph /  6.3 km/h 72 % 0.0 in /  0 mm
21:28 12.0 °F /  -11.1 °C 7.1 °F /  -13.8 °C 1011.7 in /  34256.2 hPa WNW 4.7 mph /  7.6 km/h 4.7 mph /  7.6 km/h 72 % 0.0 in /  0 mm
21:33 12.1 °F /  -11.1 °C 7.2 °F /  -13.8 °C 1011.7 in /  34256.2 hPa West 3.7 mph /  6 km/h 3.7 mph /  6 km/h 72 % 0.0 in /  0 mm
21:38 12.1 °F /  -11.1 °C 7.2 °F /  -13.8 °C 1011.7 in /  34256.2 hPa West 3.7 mph /  6 km/h 3.7 mph /  6 km/h 72 % 0.0 in /  0 mm
21:43 12.1 °F /  -11.1 °C 7.4 °F /  -13.7 °C 1011.7 in /  34256.2 hPa WSW 1.9 mph /  3.1 km/h   73 % 0.0 in /  0 mm
21:48 12.0 °F /  -11.1 °C 7.7 °F /  -13.5 °C 1011.7 in /  34256.2 hPa ESE 1.9 mph /  3.1 km/h 1.9 mph /  3.1 km/h 75 % 0.0 in /  0 mm
21:53 12.0 °F /  -11.1 °C 7.9 °F /  -13.4 °C 1011.7 in /  34256.2 hPa ENE 3.7 mph /  6 km/h 3.7 mph /  6 km/h 76 % 0.0 in /  0 mm
21:58 11.9 °F /  -11.2 °C 7.8 °F /  -13.4 °C 1011.7 in /  34256.2 hPa NNE 1.9 mph /  3.1 km/h   76 % 0.0 in /  0 mm
22:03 11.9 °F /  -11.2 °C 7.8 °F /  -13.4 °C 1011.7 in /  34256.2 hPa NE 1.9 mph /  3.1 km/h 1.9 mph /  3.1 km/h 76 % 0.0 in /  0 mm
22:08 11.9 °F /  -11.2 °C 8.0 °F /  -13.3 °C 1011.7 in /  34256.2 hPa ENE 1.9 mph /  3.1 km/h 1.9 mph /  3.1 km/h 77 % 0.0 in /  0 mm
22:13 11.8 °F /  -11.2 °C 7.7 °F /  -13.5 °C 1011.7 in /  34256.2 hPa Calm     76 % 0.0 in /  0 mm
22:18 11.8 °F /  -11.2 °C 7.7 °F /  -13.5 °C 1011.7 in /  34256.2 hPa Calm     76 % 0.0 in /  0 mm
22:23 11.8 °F /  -11.2 °C 7.9 °F /  -13.4 °C 1011.7 in /  34256.2 hPa ENE 2.3 mph /  3.7 km/h   77 % 0.0 in /  0 mm
22:28 11.8 °F /  -11.2 °C 8.1 °F /  -13.3 °C 1011.7 in /  34256.2 hPa East 3.7 mph /  6 km/h 3.7 mph /  6 km/h 78 % 0.0 in /  0 mm
22:33 11.8 °F /  -11.2 °C 8.1 °F /  -13.3 °C 1011.7 in /  34256.2 hPa NE 2.3 mph /  3.7 km/h   78 % 0.0 in /  0 mm
22:38 11.7 °F /  -11.3 °C 8.0 °F /  -13.3 °C 1011.7 in /  34256.2 hPa ENE 1.9 mph /  3.1 km/h   78 % 0.0 in /  0 mm
22:43 11.7 °F /  -11.3 °C 8.2 °F /  -13.2 °C 1011.7 in /  34256.2 hPa ESE 1.9 mph /  3.1 km/h 2.3 mph /  3.7 km/h 79 % 0.0 in /  0 mm
22:48 11.6 °F /  -11.3 °C 7.9 °F /  -13.4 °C 1011.7 in /  34256.2 hPa SSW 1.9 mph /  3.1 km/h   78 % 0.0 in /  0 mm
22:53 11.5 °F /  -11.4 °C 7.6 °F /  -13.6 °C 1011.7 in /  34256.2 hPa SSE 1.9 mph /  3.1 km/h 1.9 mph /  3.1 km/h 77 % 0.0 in /  0 mm
22:58 11.6 °F /  -11.3 °C 7.9 °F /  -13.4 °C 1011.7 in /  34256.2 hPa Calm     78 % 0.0 in /  0 mm
23:03 11.6 °F /  -11.3 °C 7.9 °F /  -13.4 °C 1011.7 in /  34256.2 hPa Calm   1.4 mph /  2.3 km/h 78 % 0.0 in /  0 mm
23:08 11.6 °F /  -11.3 °C 7.9 °F /  -13.4 °C 1011.7 in /  34256.2 hPa NNE 2.3 mph /  3.7 km/h 2.3 mph /  3.7 km/h 78 % 0.0 in /  0 mm
23:13 11.6 °F /  -11.3 °C 7.9 °F /  -13.4 °C 1011.7 in /  34256.2 hPa Calm     78 % 0.0 in /  0 mm
23:18 11.6 °F /  -11.3 °C 7.9 °F /  -13.4 °C 1011.7 in /  34256.2 hPa Calm     78 % 0.0 in /  0 mm
23:23 11.6 °F /  -11.3 °C 8.1 °F /  -13.3 °C 1011.7 in /  34256.2 hPa NE 1.9 mph /  3.1 km/h 1.9 mph /  3.1 km/h 79 % 0.0 in /  0 mm
23:28 11.6 °F /  -11.3 °C 8.1 °F /  -13.3 °C 1011.7 in /  34256.2 hPa Calm     79 % 0.0 in /  0 mm
23:33 11.6 °F /  -11.3 °C 8.1 °F /  -13.3 °C 1011.7 in /  34256.2 hPa Calm     79 % 0.0 in /  0 mm
23:38 11.6 °F /  -11.3 °C 8.1 °F /  -13.3 °C 1011.7 in /  34256.2 hPa ENE 3.2 mph /  5.1 km/h 3.2 mph /  5.1 km/h 79 % 0.0 in /  0 mm
23:43 11.6 °F /  -11.3 °C 8.1 °F /  -13.3 °C 1011.7 in /  34256.2 hPa NE 3.7 mph /  6 km/h 3.7 mph /  6 km/h 79 % 0.0 in /  0 mm
23:48 11.6 °F /  -11.3 °C 8.1 °F /  -13.3 °C 1011.7 in /  34256.2 hPa Calm     79 % 0.0 in /  0 mm
23:53 11.5 °F /  -11.4 °C 8.0 °F /  -13.3 °C 1011.7 in /  34256.2 hPa SW 3.7 mph /  6 km/h 3.7 mph /  6 km/h 79 % 0.0 in /  0 mm
23:58 11.5 °F /  -11.4 °C 8.0 °F /  -13.3 °C 1011.7 in /  34256.2 hPa WSW 1.9 mph /  3.1 km/h 1.9 mph /  3.1 km/h 79 % 0.0 in /  0 mm
Meteo Sesrovires
Elogis d' Weather Underground - 1.75 mb

Guio original per  Jim McMurry - jmcmurry@mwt.net Adaptat per a la plantilla per  Wim van der Kuil - Leuven-Template.eu

Trobareu la nostra informacio del temps tambe a:

Weather Underground

AWEKAS